createdAt,value
2023-02-09T00:02:15.184Z,86.97
2023-02-09T00:04:41.931Z,87.03
2023-02-09T00:07:08.613Z,87.70
2023-02-09T00:09:35.223Z,87.19
2023-02-09T00:12:20.775Z,87.37
2023-02-09T00:14:47.452Z,86.68
2023-02-09T00:17:14.163Z,87.31
2023-02-09T00:19:40.856Z,86.92
2023-02-09T00:22:07.631Z,87.28
2023-02-09T00:24:34.313Z,87.47
2023-02-09T00:27:01.027Z,87.21
2023-02-09T00:29:28.030Z,87.12
2023-02-09T00:31:54.889Z,87.78
2023-02-09T00:34:21.600Z,88.17
2023-02-09T00:36:48.403Z,87.43
2023-02-09T00:39:15.222Z,87.57
2023-02-09T00:42:00.511Z,86.77
2023-02-09T00:44:27.160Z,87.84
2023-02-09T00:46:54.124Z,87.81
2023-02-09T00:49:21.127Z,87.56
2023-02-09T00:51:47.953Z,87.20
2023-02-09T00:54:14.822Z,87.50
2023-02-09T00:56:41.460Z,87.57
2023-02-09T00:59:08.125Z,87.77
2023-02-09T01:01:35.068Z,87.82
2023-02-09T01:04:02.019Z,88.55
2023-02-09T01:06:28.971Z,88.70
2023-02-09T01:08:55.635Z,88.36
2023-02-09T01:11:27.247Z,87.18
2023-02-09T01:13:56.490Z,87.92
2023-02-09T01:16:23.439Z,88.00
2023-02-09T01:18:50.132Z,88.04
2023-02-09T01:21:20.224Z,88.31
2023-02-09T01:23:47.753Z,88.95
2023-02-09T01:26:15.552Z,88.65
2023-02-09T01:28:42.513Z,88.87
2023-02-09T01:31:30.801Z,89.32
2023-02-09T01:33:59.441Z,88.78
2023-02-09T01:36:26.515Z,88.62
2023-02-09T01:38:58.972Z,89.26
2023-02-09T01:41:26.378Z,89.63
2023-02-09T01:44:05.500Z,89.34
2023-02-09T01:46:34.907Z,90.60
2023-02-09T01:49:16.708Z,90.59
2023-02-09T01:52:04.739Z,90.50
2023-02-09T01:54:39.932Z,89.98
2023-02-09T01:57:17.843Z,90.70
2023-02-09T01:59:47.680Z,90.12
2023-02-09T02:02:14.733Z,89.84
2023-02-09T02:04:42.772Z,88.94
2023-02-09T02:07:25.590Z,89.58
2023-02-09T02:09:52.603Z,89.69
2023-02-09T02:12:19.356Z,89.84
2023-02-09T02:14:46.306Z,90.92
2023-02-09T02:18:04.424Z,90.28
2023-02-09T02:21:35.497Z,90.41
2023-02-09T02:24:35.599Z,90.37
2023-02-09T02:27:27.605Z,90.13
2023-02-09T02:33:47.376Z,90.24
2023-02-09T02:36:43.427Z,91.72
2023-02-09T02:39:23.016Z,91.61
2023-02-09T02:42:18.340Z,90.43
2023-02-09T02:45:09.700Z,91.16
2023-02-09T02:47:38.416Z,91.46
2023-02-09T02:50:14.738Z,91.78
2023-02-09T02:52:44.435Z,91.80
2023-02-09T02:55:15.099Z,91.47
2023-02-09T02:57:44.964Z,91.80
2023-02-09T03:00:19.915Z,92.01
2023-02-09T03:02:50.680Z,91.94
2023-02-09T03:05:18.263Z,91.17
2023-02-09T03:07:45.300Z,91.83
2023-02-09T03:10:35.518Z,92.62
2023-02-09T03:13:33.522Z,92.59
2023-02-09T03:16:27.332Z,92.50
2023-02-09T03:19:08.696Z,92.76
2023-02-09T03:22:05.230Z,91.80
2023-02-09T03:24:37.673Z,91.50
2023-02-09T03:27:23.205Z,92.43
2023-02-09T03:29:54.587Z,93.79
2023-02-09T03:32:23.343Z,94.01
2023-02-09T03:34:50.329Z,93.00
2023-02-09T03:37:17.759Z,93.17
2023-02-09T03:39:44.520Z,92.92
2023-02-09T03:42:11.510Z,92.61
2023-02-09T03:44:38.131Z,92.47
2023-02-09T03:47:07.383Z,93.09
2023-02-09T03:49:39.499Z,93.52
2023-02-09T03:52:08.549Z,92.96
2023-02-09T03:54:35.847Z,92.55
2023-02-09T03:57:03.223Z,92.65
2023-02-09T03:59:30.650Z,92.93
2023-02-09T04:01:58.717Z,92.52
2023-02-09T04:04:26.065Z,92.91
2023-02-09T04:06:53.271Z,93.74
2023-02-09T04:09:20.391Z,93.46
2023-02-09T04:11:47.777Z,93.67
2023-02-09T04:14:15.151Z,93.47
2023-02-09T04:16:42.088Z,93.81
2023-02-09T04:19:09.861Z,94.29
2023-02-09T04:21:37.812Z,94.12
2023-02-09T04:24:05.719Z,93.21
2023-02-09T04:26:32.821Z,93.23
2023-02-09T04:28:59.822Z,93.52
2023-02-09T04:31:27.032Z,94.68
2023-02-09T04:33:54.050Z,94.27
2023-02-09T04:36:23.561Z,93.56
2023-02-09T04:38:50.830Z,94.33
2023-02-09T04:41:17.989Z,94.86
2023-02-09T04:43:46.383Z,93.80
2023-02-09T04:46:17.994Z,93.49
2023-02-09T04:48:45.335Z,94.42
2023-02-09T04:51:12.271Z,93.78
2023-02-09T04:53:39.215Z,94.72
2023-02-09T04:56:06.646Z,94.40
2023-02-09T04:58:52.161Z,93.70
2023-02-09T05:01:22.125Z,92.61
2023-02-09T05:03:49.070Z,93.27
2023-02-09T05:06:15.791Z,93.09
2023-02-09T05:08:42.554Z,93.02
2023-02-09T05:11:09.486Z,93.82
2023-02-09T05:13:36.334Z,95.33
2023-02-09T05:16:12.531Z,95.34
2023-02-09T05:18:39.410Z,94.94
2023-02-09T05:21:06.597Z,94.94
2023-02-09T05:23:33.468Z,96.50
2023-02-09T05:26:00.513Z,95.50
2023-02-09T05:28:27.360Z,96.65
2023-02-09T05:30:54.535Z,95.55
2023-02-09T05:33:22.357Z,94.81
2023-02-09T05:35:49.348Z,95.04
2023-02-09T05:38:16.718Z,95.20
2023-02-09T05:40:45.140Z,94.85
2023-02-09T05:43:12.590Z,95.33
2023-02-09T05:45:39.341Z,96.21
2023-02-09T05:48:06.692Z,95.63
2023-02-09T05:50:33.638Z,96.06
2023-02-09T05:53:00.409Z,96.87
2023-02-09T05:55:27.872Z,97.47
2023-02-09T05:57:54.623Z,96.91
2023-02-09T06:00:22.172Z,97.02
2023-02-09T06:02:49.089Z,97.08
2023-02-09T06:05:16.015Z,96.62
2023-02-09T06:07:43.062Z,96.99
2023-02-09T06:10:10.227Z,96.51
2023-02-09T06:12:37.083Z,95.71
2023-02-09T06:15:04.631Z,94.54
2023-02-09T06:17:31.356Z,94.41
2023-02-09T06:19:58.198Z,94.84
2023-02-09T06:22:24.963Z,94.42
2023-02-09T06:24:52.026Z,95.87
2023-02-09T06:27:18.967Z,95.25
2023-02-09T06:29:45.705Z,94.73
2023-02-09T06:32:12.609Z,95.74
2023-02-09T06:34:39.694Z,96.62
2023-02-09T06:37:06.406Z,96.44
2023-02-09T06:39:33.207Z,97.08
2023-02-09T06:42:00.111Z,95.86
2023-02-09T06:44:27.207Z,94.78
2023-02-09T06:46:54.113Z,94.29
2023-02-09T06:49:24.243Z,94.37
2023-02-09T06:51:51.675Z,94.09
2023-02-09T06:54:18.633Z,94.37
2023-02-09T06:56:45.356Z,94.81
2023-02-09T06:59:13.129Z,95.96
2023-02-09T07:01:47.549Z,95.95
2023-02-09T07:04:14.363Z,95.94
2023-02-09T07:06:41.444Z,95.19
2023-02-09T07:09:08.285Z,95.04
2023-02-09T07:11:35.185Z,94.92
2023-02-09T07:14:02.170Z,94.04
2023-02-09T07:16:29.034Z,93.67
2023-02-09T07:18:56.216Z,95.00
2023-02-09T07:21:23.048Z,95.26
2023-02-09T07:23:50.303Z,95.80
2023-02-09T07:26:18.595Z,95.08
2023-02-09T07:28:45.831Z,94.90
2023-02-09T07:31:14.269Z,94.84
2023-02-09T07:33:41.351Z,95.29
2023-02-09T07:36:10.637Z,95.80
2023-02-09T07:38:38.716Z,96.06
2023-02-09T07:41:07.532Z,95.69
2023-02-09T07:43:34.736Z,95.78
2023-02-09T07:46:05.208Z,96.21
2023-02-09T07:48:32.715Z,96.59
2023-02-09T07:51:00.259Z,96.70
2023-02-09T07:53:28.115Z,97.34
2023-02-09T07:55:55.302Z,97.00
2023-02-09T07:58:24.021Z,96.31
2023-02-09T08:00:52.155Z,96.31
2023-02-09T08:03:21.396Z,96.19
2023-02-09T08:05:53.890Z,96.44
2023-02-09T08:08:20.970Z,95.85
2023-02-09T08:10:48.094Z,96.15
2023-02-09T08:15:18.692Z,95.35
2023-02-09T08:17:45.639Z,95.42
2023-02-09T08:20:18.330Z,95.17
2023-02-09T08:22:48.256Z,94.85
2023-02-09T08:25:17.087Z,94.83
2023-02-09T08:27:44.461Z,94.54
2023-02-09T08:30:13.163Z,94.64
2023-02-09T08:32:40.144Z,94.85
2023-02-09T08:35:07.350Z,94.33
2023-02-09T08:37:34.559Z,93.86
2023-02-09T08:40:01.337Z,93.83
2023-02-09T08:42:29.037Z,92.63
2023-02-09T08:44:55.746Z,89.81
2023-02-09T08:47:23.067Z,88.92
2023-02-09T08:49:51.444Z,88.84
2023-02-09T08:52:18.978Z,89.43
2023-02-09T08:54:45.993Z,88.53
2023-02-09T08:57:12.965Z,88.74
2023-02-09T08:59:40.270Z,87.97
2023-02-09T09:02:07.052Z,88.42
2023-02-09T09:04:34.237Z,87.21
2023-02-09T09:07:00.983Z,86.12
2023-02-09T09:09:27.910Z,84.87
2023-02-09T09:11:54.665Z,83.38
2023-02-09T09:14:21.413Z,83.68
2023-02-09T09:16:48.360Z,83.57
2023-02-09T09:19:15.581Z,83.56
2023-02-09T09:21:42.359Z,82.18
2023-02-09T09:24:09.235Z,82.12
2023-02-09T09:26:36.219Z,83.64
2023-02-09T09:29:03.318Z,83.95
2023-02-09T09:31:31.309Z,84.07
2023-02-09T09:33:58.071Z,83.25
2023-02-09T09:36:25.110Z,83.44
2023-02-09T09:38:51.840Z,83.49
2023-02-09T09:41:29.470Z,82.83
2023-02-09T09:43:56.626Z,82.02
2023-02-09T09:46:33.754Z,83.85
2023-02-09T09:49:01.200Z,85.15
2023-02-09T09:51:39.438Z,83.10
2023-02-09T09:54:13.412Z,80.56
2023-02-09T09:56:41.846Z,81.70
2023-02-09T09:59:19.634Z,78.45
2023-02-09T10:01:48.044Z,76.50
2023-02-09T10:04:16.131Z,77.05
2023-02-09T10:06:46.259Z,74.33
2023-02-09T10:09:54.224Z,73.44
2023-02-09T10:12:51.528Z,70.35
2023-02-09T10:15:31.576Z,68.72
2023-02-09T10:17:59.199Z,71.84
2023-02-09T10:20:44.851Z,69.37
2023-02-09T10:23:39.023Z,69.98
2023-02-09T10:26:09.002Z,70.17
2023-02-09T10:28:45.541Z,70.78
2023-02-09T10:31:35.551Z,69.22
2023-02-09T10:34:13.459Z,68.47
2023-02-09T10:36:48.911Z,69.26
2023-02-09T10:39:19.706Z,69.86
2023-02-09T10:41:52.391Z,68.72
2023-02-09T10:44:26.326Z,70.76
2023-02-09T10:47:09.031Z,67.89
2023-02-09T10:49:37.441Z,69.32
2023-02-09T10:52:19.570Z,68.05
2023-02-09T10:54:49.293Z,68.18
2023-02-09T10:57:29.035Z,67.17
2023-02-09T11:00:01.741Z,67.93
2023-02-09T11:02:35.386Z,68.55
2023-02-09T11:05:03.093Z,69.33
2023-02-09T11:07:34.540Z,68.85
2023-02-09T11:10:02.635Z,66.09
2023-02-09T11:12:31.157Z,65.91
2023-02-09T11:15:01.886Z,65.72
2023-02-09T11:17:40.308Z,65.05
2023-02-09T11:20:29.049Z,65.95
2023-02-09T11:23:31.006Z,65.69
2023-02-09T11:26:01.477Z,64.92
2023-02-09T11:28:52.780Z,65.08
2023-02-09T11:31:50.326Z,64.76
2023-02-09T11:34:35.844Z,63.81
2023-02-09T11:37:14.260Z,65.24
2023-02-09T11:40:05.050Z,64.15
2023-02-09T11:42:46.344Z,63.75
2023-02-09T11:45:30.030Z,64.65
2023-02-09T11:48:13.466Z,62.81
2023-02-09T11:50:59.431Z,62.28
2023-02-09T11:53:39.801Z,62.66
2023-02-09T11:56:09.473Z,62.78
2023-02-09T11:58:58.439Z,62.11
2023-02-09T12:02:00.424Z,62.82
2023-02-09T12:04:45.687Z,62.97
2023-02-09T12:07:20.445Z,62.62
2023-02-09T12:10:20.371Z,61.82
2023-02-09T12:13:15.689Z,62.04
2023-02-09T12:15:46.165Z,61.85
2023-02-09T12:18:16.031Z,61.36
2023-02-09T12:20:57.461Z,58.46
2023-02-09T12:23:43.637Z,59.97
2023-02-09T12:26:33.381Z,58.75
2023-02-09T12:29:29.345Z,59.20
2023-02-09T12:32:30.946Z,59.33
2023-02-09T12:35:22.999Z,58.53
2023-02-09T12:38:13.358Z,58.70
2023-02-09T12:40:40.350Z,57.82
2023-02-09T12:43:28.661Z,57.71
2023-02-09T12:46:33.269Z,59.38
2023-02-09T12:49:33.004Z,59.36
2023-02-09T12:52:19.974Z,59.99
2023-02-09T12:54:57.419Z,59.53
2023-02-09T12:57:49.856Z,60.12
2023-02-09T13:00:41.002Z,59.23
2023-02-09T13:03:13.317Z,60.26
2023-02-09T13:05:42.236Z,60.19
2023-02-09T13:08:18.924Z,60.36
2023-02-09T13:11:02.712Z,59.63
2023-02-09T13:13:51.741Z,60.30
2023-02-09T13:16:21.233Z,60.58
2023-02-09T13:19:12.185Z,60.50
2023-02-09T13:21:47.563Z,60.51
2023-02-09T13:24:22.781Z,60.86
2023-02-09T13:26:54.655Z,60.04
2023-02-09T13:29:26.637Z,59.08
2023-02-09T13:32:17.238Z,59.84
2023-02-09T13:35:25.635Z,60.77
2023-02-09T13:37:57.208Z,60.29
2023-02-09T13:40:29.618Z,59.47
2023-02-09T13:43:22.239Z,59.95
2023-02-09T13:45:50.930Z,59.61
2023-02-09T13:48:32.695Z,61.81
2023-02-09T13:51:01.902Z,60.68
2023-02-09T13:53:30.782Z,59.80
2023-02-09T13:56:00.925Z,59.39
2023-02-09T13:58:30.652Z,59.46
2023-02-09T14:01:00.258Z,58.94
2023-02-09T14:03:29.332Z,59.11
2023-02-09T14:06:15.386Z,61.80
2023-02-09T14:08:42.636Z,59.81
2023-02-09T14:11:47.514Z,60.28
2023-02-09T14:15:00.171Z,61.49
2023-02-09T14:17:32.446Z,61.20
2023-02-09T14:20:00.212Z,60.67
2023-02-09T14:22:33.334Z,60.50
2023-02-09T14:25:00.702Z,59.89
2023-02-09T14:27:28.677Z,60.33
2023-02-09T14:29:55.874Z,60.52
2023-02-09T14:32:37.005Z,61.23
2023-02-09T14:35:29.276Z,60.31
2023-02-09T14:38:01.585Z,60.97
2023-02-09T14:40:28.576Z,60.21
2023-02-09T14:43:25.166Z,59.99
2023-02-09T14:46:00.433Z,60.67
2023-02-09T14:48:29.092Z,59.99
2023-02-09T14:51:01.750Z,60.96
2023-02-09T14:53:31.512Z,61.12
2023-02-09T14:55:58.985Z,60.89
2023-02-09T14:58:27.053Z,61.40
2023-02-09T15:00:56.147Z,62.18
2023-02-09T15:03:22.877Z,61.50
2023-02-09T15:05:51.798Z,62.07
2023-02-09T15:08:22.169Z,61.21
2023-02-09T15:10:51.275Z,64.13
2023-02-09T15:13:18.081Z,61.91
2023-02-09T15:15:45.540Z,62.75
2023-02-09T15:18:20.658Z,63.29
2023-02-09T15:20:48.069Z,63.01
2023-02-09T15:23:15.007Z,62.23
2023-02-09T15:25:42.479Z,62.64
2023-02-09T15:28:30.292Z,63.17
2023-02-09T15:30:58.719Z,64.21
2023-02-09T15:33:26.377Z,63.73
2023-02-09T15:35:53.390Z,64.32
2023-02-09T15:38:20.516Z,63.97
2023-02-09T15:41:07.894Z,64.11
2023-02-09T15:43:53.798Z,64.34
2023-02-09T15:46:39.184Z,65.18
2023-02-09T15:49:06.072Z,65.30
2023-02-09T15:51:34.483Z,66.59
2023-02-09T15:54:03.333Z,66.88
2023-02-09T15:56:30.244Z,66.84
2023-02-09T15:59:03.872Z,67.27
2023-02-09T16:01:34.697Z,66.53
2023-02-09T16:04:13.406Z,66.75
2023-02-09T16:06:43.822Z,67.04
2023-02-09T16:09:17.769Z,67.99
2023-02-09T16:11:44.513Z,68.21
2023-02-09T16:14:17.087Z,68.72
2023-02-09T16:16:45.954Z,69.08
2023-02-09T16:19:13.574Z,68.57
2023-02-09T16:21:42.665Z,69.31
2023-02-09T16:24:17.830Z,70.09
2023-02-09T16:26:44.801Z,70.74
2023-02-09T16:29:11.737Z,71.50
2023-02-09T16:31:38.518Z,72.35
2023-02-09T16:34:05.199Z,71.90
2023-02-09T16:36:31.974Z,72.20
2023-02-09T16:38:58.570Z,72.32
2023-02-09T16:41:44.317Z,72.78
2023-02-09T16:44:30.632Z,73.85
2023-02-09T16:46:59.169Z,74.74
2023-02-09T16:49:43.267Z,76.09
2023-02-09T16:52:16.305Z,76.22
2023-02-09T16:54:48.557Z,76.32
2023-02-09T16:57:18.181Z,76.95
2023-02-09T16:59:45.089Z,76.21
2023-02-09T17:02:37.368Z,76.51
2023-02-09T17:05:17.234Z,76.52
2023-02-09T17:07:53.991Z,77.24
2023-02-09T17:10:25.449Z,78.22
2023-02-09T17:12:53.749Z,78.07
2023-02-09T17:15:29.389Z,78.87
2023-02-09T17:18:02.113Z,78.70
2023-02-09T17:20:34.554Z,79.48
2023-02-09T17:23:01.193Z,80.91
2023-02-09T17:25:27.952Z,81.67
2023-02-09T17:27:54.862Z,81.78
2023-02-09T17:30:22.533Z,82.72
2023-02-09T17:33:04.247Z,82.83
2023-02-09T17:36:03.546Z,81.90
2023-02-09T17:38:29.727Z,82.06
2023-02-09T17:40:57.845Z,81.95
2023-02-09T17:43:25.052Z,82.55
2023-02-09T17:45:52.488Z,83.02
2023-02-09T17:48:21.017Z,82.32
2023-02-09T17:50:49.692Z,82.10
2023-02-09T17:53:25.495Z,80.70
2023-02-09T17:55:54.373Z,80.85
2023-02-09T17:58:21.079Z,80.96
2023-02-09T18:00:48.227Z,81.46
2023-02-09T18:03:26.091Z,80.98
2023-02-09T18:05:55.938Z,80.67
2023-02-09T18:08:23.026Z,81.92
2023-02-09T18:10:49.943Z,82.30
2023-02-09T18:13:19.243Z,83.19
2023-02-09T18:15:48.992Z,82.10
2023-02-09T18:18:15.829Z,83.88
2023-02-09T18:20:42.792Z,83.37
2023-02-09T18:23:14.264Z,83.28
2023-02-09T18:25:41.509Z,82.43
2023-02-09T18:28:08.334Z,83.36
2023-02-09T18:30:39.403Z,83.50
2023-02-09T18:33:07.766Z,84.09
2023-02-09T18:35:38.415Z,83.99
2023-02-09T18:38:07.180Z,84.42
2023-02-09T18:40:34.270Z,84.05
2023-02-09T18:43:05.452Z,84.58
2023-02-09T18:45:32.998Z,84.14
2023-02-09T18:48:00.008Z,84.35
2023-02-09T18:50:29.448Z,84.01
2023-02-09T18:52:58.458Z,84.74
2023-02-09T18:55:28.177Z,85.13
2023-02-09T18:57:55.918Z,85.56
2023-02-09T19:00:23.431Z,85.53
2023-02-09T19:02:50.697Z,84.87
2023-02-09T19:05:19.091Z,85.13
2023-02-09T19:07:47.604Z,85.84
2023-02-09T19:10:18.068Z,86.53
2023-02-09T19:12:46.010Z,87.07
2023-02-09T19:15:14.125Z,86.63
2023-02-09T19:17:41.761Z,87.32
2023-02-09T19:20:12.985Z,87.31
2023-02-09T19:22:39.677Z,86.89
2023-02-09T19:25:06.960Z,86.04
2023-02-09T19:27:37.749Z,86.14
2023-02-09T19:30:05.036Z,86.00
2023-02-09T19:32:31.673Z,85.84
2023-02-09T19:34:58.419Z,86.15
2023-02-09T19:37:25.145Z,87.00
2023-02-09T19:40:04.172Z,87.99
2023-02-09T19:42:31.896Z,88.13
2023-02-09T19:44:58.775Z,87.96
2023-02-09T19:47:28.386Z,88.01
2023-02-09T19:49:56.426Z,88.11
2023-02-09T19:52:23.664Z,89.03
2023-02-09T19:54:50.842Z,89.55
2023-02-09T19:57:18.948Z,89.08
2023-02-09T19:59:45.674Z,89.33
2023-02-09T20:02:13.809Z,89.75
2023-02-09T20:04:42.831Z,89.87
2023-02-09T20:07:10.324Z,89.54
2023-02-09T20:09:37.698Z,89.43
2023-02-09T20:12:04.671Z,89.71
2023-02-09T20:14:33.469Z,90.25
2023-02-09T20:17:00.469Z,90.51
2023-02-09T20:19:27.275Z,91.07
2023-02-09T20:21:53.892Z,90.21
2023-02-09T20:24:20.619Z,90.63
2023-02-09T20:26:47.302Z,90.72
2023-02-09T20:29:14.113Z,90.81
2023-02-09T20:31:42.003Z,91.53
2023-02-09T20:34:13.316Z,90.87
2023-02-09T20:36:41.417Z,91.02
2023-02-09T20:39:16.213Z,91.04
2023-02-09T20:42:05.466Z,91.64
2023-02-09T20:44:51.882Z,89.96
2023-02-09T20:47:19.210Z,90.87
2023-02-09T20:49:45.993Z,90.68
2023-02-09T20:52:13.144Z,90.98
2023-02-09T20:54:40.177Z,90.21
2023-02-09T20:57:07.154Z,90.07
2023-02-09T20:59:34.890Z,90.97
2023-02-09T21:02:01.810Z,91.62
2023-02-09T21:04:30.412Z,92.64
2023-02-09T21:06:58.234Z,91.91
2023-02-09T21:09:28.574Z,91.97
2023-02-09T21:11:56.355Z,91.86
2023-02-09T21:14:32.328Z,92.65
2023-02-09T21:16:59.568Z,92.71
2023-02-09T21:19:26.383Z,91.99
2023-02-09T21:21:53.301Z,90.94
2023-02-09T21:24:20.325Z,91.98
2023-02-09T21:26:47.219Z,91.25
2023-02-09T21:29:14.819Z,90.65
2023-02-09T21:31:41.618Z,92.08
2023-02-09T21:34:08.401Z,92.43
2023-02-09T21:36:35.847Z,93.21
2023-02-09T21:39:03.460Z,93.12
2023-02-09T21:41:49.250Z,93.14
2023-02-09T21:44:16.005Z,93.23
2023-02-09T21:46:42.849Z,92.88
2023-02-09T21:49:11.684Z,92.89
2023-02-09T21:51:38.514Z,92.69
2023-02-09T21:54:07.131Z,92.71
2023-02-09T21:56:33.811Z,92.60
2023-02-09T21:59:00.419Z,93.06
2023-02-09T22:01:27.171Z,92.48
2023-02-09T22:03:57.417Z,92.52
2023-02-09T22:06:25.404Z,92.98
2023-02-09T22:08:52.766Z,93.11
2023-02-09T22:11:19.514Z,93.09
2023-02-09T22:13:46.125Z,93.41
2023-02-09T22:16:18.596Z,92.67
2023-02-09T22:18:45.459Z,92.25
2023-02-09T22:21:12.222Z,92.64
2023-02-09T22:23:38.920Z,92.21
2023-02-09T22:26:06.662Z,91.53
2023-02-09T22:28:36.403Z,92.11
2023-02-09T22:31:08.369Z,92.69
2023-02-09T22:33:35.628Z,93.03
2023-02-09T22:36:12.511Z,93.80
2023-02-09T22:38:39.373Z,92.94
2023-02-09T22:41:21.663Z,93.20
2023-02-09T22:43:59.973Z,93.44
2023-02-09T22:46:38.186Z,94.29
2023-02-09T22:49:08.195Z,94.04
2023-02-09T22:51:35.731Z,94.01
2023-02-09T22:54:03.439Z,94.71
2023-02-09T22:56:31.030Z,95.73
2023-02-09T22:58:58.948Z,95.12
2023-02-09T23:01:26.127Z,94.73
2023-02-09T23:03:53.187Z,95.17
2023-02-09T23:06:23.538Z,94.93
2023-02-09T23:08:56.935Z,95.22
2023-02-09T23:11:24.419Z,96.62
2023-02-09T23:14:03.795Z,95.95
2023-02-09T23:16:35.095Z,94.98
2023-02-09T23:19:07.556Z,95.17
2023-02-09T23:21:37.293Z,95.02
2023-02-09T23:24:04.608Z,94.54
2023-02-09T23:26:31.563Z,93.80
2023-02-09T23:29:00.455Z,93.68
2023-02-09T23:31:27.999Z,94.98
2023-02-09T23:33:55.168Z,93.77
2023-02-09T23:36:24.002Z,93.43
2023-02-09T23:38:55.759Z,93.73
2023-02-09T23:41:23.123Z,94.54
2023-02-09T23:43:50.664Z,94.41
2023-02-09T23:46:19.778Z,94.12
2023-02-09T23:48:46.557Z,95.39
2023-02-09T23:51:18.937Z,94.75
2023-02-09T23:53:46.603Z,93.86
2023-02-09T23:56:14.188Z,93.83
2023-02-09T23:58:44.194Z,93.80
